MAPA DE AEROPUERTO

INFORMACIÓN METAR y TAF

METAR FOR LEPP
ADDS - METARS form results

(1347 UTC 11 April 2021)
Data provider http://aviationweather.gov/metar/data/
 
METAR text: LEPP 111330Z 35013KT 320V020 9999 FEW025 BKN040 10/05 Q1017
Conditions at: LEPP (PAMPLONA/NOAIN , ES) observed 1330 UTC 11 April 2021
Temperature: 10.0°C (50°F)
Dewpoint: 5.0°C (41°F) [RH = 71%]
Pressure (altimeter): 30.03 inches Hg (1017.0 mb)
Winds: from the N (350 degrees) at 15 MPH (13 knots; 6.7 m/s)
Visibility: 6 or more miles (10+ km)
Ceiling: 4000 feet AGL
Clouds: few clouds at 2500 feet AGL
broken clouds at 4000 feet AGL
Weather: no significant weather observed at this time

METAR text: LEPP 111300Z 36013KT 330V030 9999 SCT025 BKN035 09/04 Q1017
Conditions at: LEPP (PAMPLONA/NOAIN , ES) observed 1300 UTC 11 April 2021
Temperature: 9.0°C (48°F)
Dewpoint: 4.0°C (39°F) [RH = 71%]
Pressure (altimeter): 30.03 inches Hg (1017.0 mb)
Winds: from the N (360 degrees) at 15 MPH (13 knots; 6.7 m/s)
Visibility: 6 or more miles (10+ km)
Ceiling: 3500 feet AGL
Clouds: scattered clouds at 2500 feet AGL
broken clouds at 3500 feet AGL
Weather: no significant weather observed at this time

Forecast for: LEPP (PAMPLONA/NOAIN , ES)
Text: TAF LEPP 110800Z 1109/1209 33009KT 9999 SCT015 BKN030 TX11/1114Z TN01/1206Z
Forecast period: 0900 UTC 11 April 2021 to 0900 UTC 12 April 2021
Forecast type: FROM: standard forecast or significant change
Winds: from the NNW (330 degrees) at 10 MPH (9 knots; 4.6 m/s)
Visibility: 6 or more miles (10+ km)
Ceiling: 3000 feet AGL
Clouds: scattered clouds at 1500 feet AGL
broken clouds at 3000 feet AGL
Weather: no significant weather forecast for this period
Text: PROB40
Forecast period: 0900 to 1300 UTC 11 April 2021
Forecast type: TEMPORARY: The following changes expected for less than half the time period
Visibility: 1.86 miles (2.99 km)
Ceiling: unknown
Clouds: missing
Weather: RA  (moderate rain)
Text: TEMPO 1109/1113 3000 RA
Forecast period: 1300 to 1600 UTC 11 April 2021
Forecast type: TEMPORARY: The following changes expected for less than half the time period
Visibility: missing
Ceiling: unknown
Clouds: missing
Weather: RA  (moderate rain)
Text: PROB30
Forecast period: 1200 to 1600 UTC 11 April 2021
Forecast type: TEMPORARY: The following changes expected for less than half the time period
Winds: from the NNW (330 degrees) at 17 MPH (15 knots; 7.7 m/s)
gusting to 29 MPH (25 knots; 12.9 m/s)
Visibility: missing
Ceiling: unknown
Clouds: missing
Weather: no significant weather forecast for this period